sensor_id;sensor_type;location;lat;lon;timestamp;pressure;altitude;pressure_sealevel;temperature;humidity
33795;BME280;51430;52.242;21.118;2022-10-16T00:02:53;100451.77;;;14.88;82.51
33795;BME280;51430;52.242;21.118;2022-10-16T00:06:30;100453.89;;;14.92;82.35
33795;BME280;51430;52.242;21.118;2022-10-16T00:10:07;100454.95;;;14.89;82.39
33795;BME280;51430;52.242;21.118;2022-10-16T00:13:46;100457.67;;;14.90;82.38
33795;BME280;51430;52.242;21.118;2022-10-16T00:17:23;100457.08;;;14.89;82.32
33795;BME280;51430;52.242;21.118;2022-10-16T00:21:15;100455.28;;;14.94;82.32
33795;BME280;51430;52.242;21.118;2022-10-16T00:24:52;100451.32;;;14.91;82.44
33795;BME280;51430;52.242;21.118;2022-10-16T00:28:30;100450.30;;;14.91;82.61
33795;BME280;51430;52.242;21.118;2022-10-16T00:32:08;100455.09;;;14.90;82.46
33795;BME280;51430;52.242;21.118;2022-10-16T00:35:45;100455.98;;;14.82;83.10
33795;BME280;51430;52.242;21.118;2022-10-16T00:39:24;100458.06;;;14.81;83.42
33795;BME280;51430;52.242;21.118;2022-10-16T00:43:00;100456.56;;;14.84;83.41
33795;BME280;51430;52.242;21.118;2022-10-16T00:46:40;100463.42;;;14.70;84.56
33795;BME280;51430;52.242;21.118;2022-10-16T00:54:02;100464.31;;;14.39;88.07
33795;BME280;51430;52.242;21.118;2022-10-16T00:57:39;100467.09;;;14.16;90.64
33795;BME280;51430;52.242;21.118;2022-10-16T01:01:17;100469.35;;;14.01;92.17
33795;BME280;51430;52.242;21.118;2022-10-16T01:04:55;100465.73;;;13.92;92.87
33795;BME280;51430;52.242;21.118;2022-10-16T01:08:45;100471.32;;;13.83;94.21
33795;BME280;51430;52.242;21.118;2022-10-16T01:12:40;100475.13;;;13.77;94.84
33795;BME280;51430;52.242;21.118;2022-10-16T01:16:25;100486.70;;;13.75;94.39
33795;BME280;51430;52.242;21.118;2022-10-16T01:24:15;100480.18;;;13.90;93.21
33795;BME280;51430;52.242;21.118;2022-10-16T01:27:55;100478.94;;;13.94;92.86
33795;BME280;51430;52.242;21.118;2022-10-16T01:31:36;100476.05;;;13.93;92.75
33795;BME280;51430;52.242;21.118;2022-10-16T01:35:30;100483.14;;;13.98;93.08
33795;BME280;51430;52.242;21.118;2022-10-16T01:39:10;100486.59;;;13.98;92.43
33795;BME280;51430;52.242;21.118;2022-10-16T01:43:00;100486.83;;;14.00;92.68
33795;BME280;51430;52.242;21.118;2022-10-16T01:46:41;100490.48;;;14.00;92.82
33795;BME280;51430;52.242;21.118;2022-10-16T01:50:19;100492.09;;;14.01;92.67
33795;BME280;51430;52.242;21.118;2022-10-16T01:53:58;100495.42;;;14.05;92.72
33795;BME280;51430;52.242;21.118;2022-10-16T01:57:38;100500.89;;;14.03;92.83
33795;BME280;51430;52.242;21.118;2022-10-16T02:01:20;100498.02;;;14.06;92.60
33795;BME280;51430;52.242;21.118;2022-10-16T02:05:03;100489.77;;;14.04;92.54
33795;BME280;51430;52.242;21.118;2022-10-16T02:08:41;100492.54;;;13.97;93.23
33795;BME280;51430;52.242;21.118;2022-10-16T02:12:29;100493.33;;;13.92;93.56
33795;BME280;51430;52.242;21.118;2022-10-16T02:16:09;100497.02;;;13.87;94.02
33795;BME280;51430;52.242;21.118;2022-10-16T02:19:48;100490.77;;;13.85;94.21
33795;BME280;51430;52.242;21.118;2022-10-16T02:23:32;100488.92;;;13.88;94.17
33795;BME280;51430;52.242;21.118;2022-10-16T02:31:03;100479.15;;;13.89;94.18
33795;BME280;51430;52.242;21.118;2022-10-16T02:34:42;100476.96;;;13.86;94.38
33795;BME280;51430;52.242;21.118;2022-10-16T02:38:23;100478.37;;;13.79;94.82
33795;BME280;51430;52.242;21.118;2022-10-16T02:42:01;100481.14;;;13.77;94.72
33795;BME280;51430;52.242;21.118;2022-10-16T02:45:38;100486.34;;;13.77;94.87
33795;BME280;51430;52.242;21.118;2022-10-16T02:49:16;100486.28;;;13.74;95.05
33795;BME280;51430;52.242;21.118;2022-10-16T02:52:54;100484.20;;;13.72;95.05
33795;BME280;51430;52.242;21.118;2022-10-16T02:56:32;100485.05;;;13.68;95.24
33795;BME280;51430;52.242;21.118;2022-10-16T03:00:12;100488.98;;;13.67;95.35
33795;BME280;51430;52.242;21.118;2022-10-16T03:03:49;100496.30;;;13.69;95.32
33795;BME280;51430;52.242;21.118;2022-10-16T03:07:26;100497.31;;;13.70;95.35
33795;BME280;51430;52.242;21.118;2022-10-16T03:11:04;100501.84;;;13.70;95.24
33795;BME280;51430;52.242;21.118;2022-10-16T03:14:42;100504.20;;;13.69;95.38
33795;BME280;51430;52.242;21.118;2022-10-16T03:18:20;100507.24;;;13.66;95.41
33795;BME280;51430;52.242;21.118;2022-10-16T03:21:57;100512.55;;;13.64;95.60
33795;BME280;51430;52.242;21.118;2022-10-16T03:25:35;100516.73;;;13.68;95.35
33795;BME280;51430;52.242;21.118;2022-10-16T03:29:13;100521.76;;;13.69;95.25
33795;BME280;51430;52.242;21.118;2022-10-16T03:32:50;100525.77;;;13.71;94.96
33795;BME280;51430;52.242;21.118;2022-10-16T03:36:30;100528.92;;;13.71;94.80
33795;BME280;51430;52.242;21.118;2022-10-16T03:40:08;100529.70;;;13.73;94.68
33795;BME280;51430;52.242;21.118;2022-10-16T03:43:45;100526.29;;;13.73;94.28
33795;BME280;51430;52.242;21.118;2022-10-16T03:47:23;100531.05;;;13.73;94.38
33795;BME280;51430;52.242;21.118;2022-10-16T03:51:00;100527.04;;;13.71;94.26
33795;BME280;51430;52.242;21.118;2022-10-16T03:54:38;100526.06;;;13.72;94.21
33795;BME280;51430;52.242;21.118;2022-10-16T03:58:16;100531.05;;;13.69;94.32
33795;BME280;51430;52.242;21.118;2022-10-16T04:01:54;100535.70;;;13.72;94.20
33795;BME280;51430;52.242;21.118;2022-10-16T04:05:31;100535.58;;;13.75;93.81
33795;BME280;51430;52.242;21.118;2022-10-16T04:09:09;100536.04;;;13.76;93.51
33795;BME280;51430;52.242;21.118;2022-10-16T04:12:47;100540.56;;;13.66;93.87
33795;BME280;51430;52.242;21.118;2022-10-16T04:16:24;100535.53;;;13.62;94.00
33795;BME280;51430;52.242;21.118;2022-10-16T04:20:03;100525.21;;;13.53;94.22
33795;BME280;51430;52.242;21.118;2022-10-16T04:23:40;100533.59;;;13.48;94.41
33795;BME280;51430;52.242;21.118;2022-10-16T04:27:17;100537.64;;;13.43;94.41
33795;BME280;51430;52.242;21.118;2022-10-16T04:30:55;100537.10;;;13.37;94.29
33795;BME280;51430;52.242;21.118;2022-10-16T04:34:32;100540.10;;;13.31;94.59
33795;BME280;51430;52.242;21.118;2022-10-16T04:38:10;100545.24;;;13.24;94.85
33795;BME280;51430;52.242;21.118;2022-10-16T04:41:48;100543.33;;;13.15;95.22
33795;BME280;51430;52.242;21.118;2022-10-16T04:45:25;100546.42;;;13.08;95.55
33795;BME280;51430;52.242;21.118;2022-10-16T04:49:04;100547.57;;;13.07;95.60
33795;BME280;51430;52.242;21.118;2022-10-16T04:52:41;100547.86;;;13.04;95.67
33795;BME280;51430;52.242;21.118;2022-10-16T04:56:19;100548.19;;;13.01;95.85
33795;BME280;51430;52.242;21.118;2022-10-16T04:59:57;100558.09;;;13.06;95.61
33795;BME280;51430;52.242;21.118;2022-10-16T05:03:35;100555.65;;;13.04;95.89
33795;BME280;51430;52.242;21.118;2022-10-16T05:07:13;100563.21;;;13.04;95.99
33795;BME280;51430;52.242;21.118;2022-10-16T05:10:53;100563.52;;;13.04;96.09
33795;BME280;51430;52.242;21.118;2022-10-16T05:14:30;100565.06;;;13.07;95.96
33795;BME280;51430;52.242;21.118;2022-10-16T05:18:06;100572.71;;;13.05;95.97
33795;BME280;51430;52.242;21.118;2022-10-16T05:21:44;100576.41;;;13.09;95.93
33795;BME280;51430;52.242;21.118;2022-10-16T05:25:24;100578.61;;;13.10;96.03
33795;BME280;51430;52.242;21.118;2022-10-16T05:29:00;100588.52;;;13.19;95.65
33795;BME280;51430;52.242;21.118;2022-10-16T05:32:38;100594.11;;;13.26;95.32
33795;BME280;51430;52.242;21.118;2022-10-16T05:36:16;100592.58;;;13.31;94.90
33795;BME280;51430;52.242;21.118;2022-10-16T05:39:55;100601.59;;;13.35;94.71
33795;BME280;51430;52.242;21.118;2022-10-16T05:43:32;100601.64;;;13.42;94.28
33795;BME280;51430;52.242;21.118;2022-10-16T05:47:10;100599.04;;;13.34;94.32
33795;BME280;51430;52.242;21.118;2022-10-16T05:50:48;100592.54;;;13.30;94.30
33795;BME280;51430;52.242;21.118;2022-10-16T05:54:25;100590.71;;;13.26;94.28
33795;BME280;51430;52.242;21.118;2022-10-16T05:58:03;100594.27;;;13.26;94.11
33795;BME280;51430;52.242;21.118;2022-10-16T06:01:40;100600.10;;;13.28;94.28
33795;BME280;51430;52.242;21.118;2022-10-16T06:05:18;100606.08;;;13.29;93.99
33795;BME280;51430;52.242;21.118;2022-10-16T06:08:56;100612.21;;;13.31;93.77
33795;BME280;51430;52.242;21.118;2022-10-16T06:12:36;100621.41;;;13.38;93.67
33795;BME280;51430;52.242;21.118;2022-10-16T06:16:13;100628.70;;;13.50;93.26
33795;BME280;51430;52.242;21.118;2022-10-16T06:19:51;100627.42;;;13.62;92.56
33795;BME280;51430;52.242;21.118;2022-10-16T06:23:29;100629.66;;;13.76;92.00
33795;BME280;51430;52.242;21.118;2022-10-16T06:27:09;100631.40;;;13.88;90.87
33795;BME280;51430;52.242;21.118;2022-10-16T06:30:45;100631.78;;;14.00;90.10
33795;BME280;51430;52.242;21.118;2022-10-16T06:34:23;100631.35;;;14.07;89.46
33795;BME280;51430;52.242;21.118;2022-10-16T06:38:00;100637.85;;;14.25;88.67
33795;BME280;51430;52.242;21.118;2022-10-16T06:41:38;100640.70;;;14.47;87.83
33795;BME280;51430;52.242;21.118;2022-10-16T06:45:16;100650.10;;;14.59;86.62
33795;BME280;51430;52.242;21.118;2022-10-16T06:48:53;100653.18;;;14.72;85.89
33795;BME280;51430;52.242;21.118;2022-10-16T06:52:32;100651.55;;;14.80;85.59
33795;BME280;51430;52.242;21.118;2022-10-16T06:56:14;100649.54;;;14.91;84.77
33795;BME280;51430;52.242;21.118;2022-10-16T06:59:50;100654.52;;;15.23;83.51
33795;BME280;51430;52.242;21.118;2022-10-16T07:03:30;100655.44;;;15.53;81.79
33795;BME280;51430;52.242;21.118;2022-10-16T07:07:07;100661.18;;;15.79;80.62
33795;BME280;51430;52.242;21.118;2022-10-16T07:10:45;100668.11;;;16.02;79.59
33795;BME280;51430;52.242;21.118;2022-10-16T07:14:23;100671.41;;;16.23;78.69
33795;BME280;51430;52.242;21.118;2022-10-16T07:18:20;100682.66;;;16.08;78.96
33795;BME280;51430;52.242;21.118;2022-10-16T07:21:40;100690.90;;;15.96;79.82
33795;BME280;51430;52.242;21.118;2022-10-16T07:25:18;100693.17;;;15.69;80.52
33795;BME280;51430;52.242;21.118;2022-10-16T07:28:54;100699.01;;;15.60;80.86
33795;BME280;51430;52.242;21.118;2022-10-16T07:32:32;100687.91;;;15.54;81.43
33795;BME280;51430;52.242;21.118;2022-10-16T07:36:12;100680.20;;;15.62;81.47
33795;BME280;51430;52.242;21.118;2022-10-16T07:39:52;100674.23;;;15.69;80.83
33795;BME280;51430;52.242;21.118;2022-10-16T07:43:29;100674.63;;;15.86;80.42
33795;BME280;51430;52.242;21.118;2022-10-16T07:47:07;100671.23;;;16.03;80.07
33795;BME280;51430;52.242;21.118;2022-10-16T07:50:45;100674.40;;;16.42;78.53
33795;BME280;51430;52.242;21.118;2022-10-16T07:54:22;100663.95;;;16.80;77.35
33795;BME280;51430;52.242;21.118;2022-10-16T07:58:01;100653.96;;;17.75;73.35
33795;BME280;51430;52.242;21.118;2022-10-16T08:01:37;100664.02;;;18.52;70.77
33795;BME280;51430;52.242;21.118;2022-10-16T08:05:15;100660.95;;;19.14;67.75
33795;BME280;51430;52.242;21.118;2022-10-16T08:08:53;100672.02;;;18.83;68.83
33795;BME280;51430;52.242;21.118;2022-10-16T08:12:30;100675.70;;;18.77;68.95
33795;BME280;51430;52.242;21.118;2022-10-16T08:16:08;100677.85;;;18.68;69.15
33795;BME280;51430;52.242;21.118;2022-10-16T08:19:47;100690.87;;;18.60;69.31
33795;BME280;51430;52.242;21.118;2022-10-16T08:23:27;100692.17;;;19.31;67.58
33795;BME280;51430;52.242;21.118;2022-10-16T08:27:05;100693.97;;;19.85;65.45
33795;BME280;51430;52.242;21.118;2022-10-16T08:30:43;100698.02;;;19.31;66.64
33795;BME280;51430;52.242;21.118;2022-10-16T08:34:20;100707.20;;;19.09;67.42
33795;BME280;51430;52.242;21.118;2022-10-16T08:37:59;100709.77;;;19.81;65.53
33795;BME280;51430;52.242;21.118;2022-10-16T08:41:56;100709.38;;;20.29;63.40
33795;BME280;51430;52.242;21.118;2022-10-16T08:49:33;100712.50;;;19.19;67.03
33795;BME280;51430;52.242;21.118;2022-10-16T08:53:17;100714.87;;;19.02;67.86
33795;BME280;51430;52.242;21.118;2022-10-16T08:56:56;100717.80;;;18.99;68.17
33795;BME280;51430;52.242;21.118;2022-10-16T09:00:34;100731.10;;;18.96;68.07
33795;BME280;51430;52.242;21.118;2022-10-16T09:11:49;100723.64;;;19.54;66.91
33795;BME280;51430;52.242;21.118;2022-10-16T09:15:39;100724.77;;;20.24;65.36
33795;BME280;51430;52.242;21.118;2022-10-16T09:19:23;100741.67;;;20.88;62.50
33795;BME280;51430;52.242;21.118;2022-10-16T09:26:45;100729.30;;;21.51;60.40
33795;BME280;51430;52.242;21.118;2022-10-16T09:30:26;100715.47;;;21.84;59.16
33795;BME280;51430;52.242;21.118;2022-10-16T09:34:05;100721.61;;;22.58;55.60
33795;BME280;51430;52.242;21.118;2022-10-16T09:37:48;100727.09;;;22.22;55.98
33795;BME280;51430;52.242;21.118;2022-10-16T09:41:25;100722.75;;;21.72;57.52
33795;BME280;51430;52.242;21.118;2022-10-16T09:45:04;100713.40;;;21.85;57.54
33795;BME280;51430;52.242;21.118;2022-10-16T09:48:48;100722.94;;;22.56;55.84
33795;BME280;51430;52.242;21.118;2022-10-16T09:52:26;100718.06;;;21.80;57.39
33795;BME280;51430;52.242;21.118;2022-10-16T09:56:03;100722.85;;;21.60;58.32
33795;BME280;51430;52.242;21.118;2022-10-16T09:59:52;100729.24;;;21.29;59.66
33795;BME280;51430;52.242;21.118;2022-10-16T10:03:40;100724.04;;;22.13;57.38
33795;BME280;51430;52.242;21.118;2022-10-16T10:07:30;100724.19;;;23.19;54.80
33795;BME280;51430;52.242;21.118;2022-10-16T10:11:10;100720.80;;;23.57;53.79
33795;BME280;51430;52.242;21.118;2022-10-16T10:14:53;100723.77;;;24.30;52.32
33795;BME280;51430;52.242;21.118;2022-10-16T10:18:36;100730.44;;;24.71;50.79
33795;BME280;51430;52.242;21.118;2022-10-16T10:22:22;100732.02;;;23.47;53.41
33795;BME280;51430;52.242;21.118;2022-10-16T10:29:52;100722.46;;;22.73;55.56
33795;BME280;51430;52.242;21.118;2022-10-16T10:33:45;100710.86;;;22.82;56.11
33795;BME280;51430;52.242;21.118;2022-10-16T10:38:05;100707.13;;;22.56;56.15
33795;BME280;51430;52.242;21.118;2022-10-16T10:42:10;100704.29;;;22.95;55.44
33795;BME280;51430;52.242;21.118;2022-10-16T10:46:02;100702.23;;;22.63;56.40
33795;BME280;51430;52.242;21.118;2022-10-16T10:54:13;100708.50;;;22.02;58.23
33795;BME280;51430;52.242;21.118;2022-10-16T11:10:28;100701.67;;;22.92;55.60
33795;BME280;51430;52.242;21.118;2022-10-16T11:14:25;100704.77;;;22.78;55.87
33795;BME280;51430;52.242;21.118;2022-10-16T11:18:16;100702.50;;;22.87;55.86
33795;BME280;51430;52.242;21.118;2022-10-16T11:22:22;100703.48;;;22.65;56.74
33795;BME280;51430;52.242;21.118;2022-10-16T11:26:04;100704.65;;;23.01;56.04
33795;BME280;51430;52.242;21.118;2022-10-16T11:29:57;100703.24;;;22.96;56.13
33795;BME280;51430;52.242;21.118;2022-10-16T11:34:32;100701.52;;;23.60;54.75
33795;BME280;51430;52.242;21.118;2022-10-16T11:37:52;100702.06;;;23.31;54.68
33795;BME280;51430;52.242;21.118;2022-10-16T11:42:22;100708.29;;;23.05;55.39
33795;BME280;51430;52.242;21.118;2022-10-16T11:45:42;100714.14;;;23.14;55.53
33795;BME280;51430;52.242;21.118;2022-10-16T11:49:21;100715.46;;;23.61;54.21
33795;BME280;51430;52.242;21.118;2022-10-16T11:56:44;100706.30;;;24.44;51.63
33795;BME280;51430;52.242;21.118;2022-10-16T12:00:28;100703.60;;;24.52;51.22
33795;BME280;51430;52.242;21.118;2022-10-16T12:04:39;100703.52;;;24.48;51.22
33795;BME280;51430;52.242;21.118;2022-10-16T12:08:16;100704.40;;;24.30;51.81
33795;BME280;51430;52.242;21.118;2022-10-16T12:11:53;100709.02;;;23.63;53.28
33795;BME280;51430;52.242;21.118;2022-10-16T12:15:33;100701.28;;;22.84;55.57
33795;BME280;51430;52.242;21.118;2022-10-16T12:19:31;100698.37;;;22.52;56.61
33795;BME280;51430;52.242;21.118;2022-10-16T12:23:19;100707.15;;;22.69;56.36
33795;BME280;51430;52.242;21.118;2022-10-16T12:26:59;100712.70;;;22.72;56.26
33795;BME280;51430;52.242;21.118;2022-10-16T12:30:37;100717.17;;;22.29;56.98
33795;BME280;51430;52.242;21.118;2022-10-16T12:34:42;100719.42;;;22.19;57.80
33795;BME280;51430;52.242;21.118;2022-10-16T12:42:22;100716.25;;;21.91;58.87
33795;BME280;51430;52.242;21.118;2022-10-16T13:05:59;100733.98;;;21.79;59.46
33795;BME280;51430;52.242;21.118;2022-10-16T13:21:33;100720.98;;;20.97;62.20
33795;BME280;51430;52.242;21.118;2022-10-16T13:25:41;100733.18;;;20.96;62.41
33795;BME280;51430;52.242;21.118;2022-10-16T13:29:22;100737.11;;;20.81;63.03
33795;BME280;51430;52.242;21.118;2022-10-16T13:33:02;100741.06;;;20.75;63.46
33795;BME280;51430;52.242;21.118;2022-10-16T13:36:46;100749.15;;;20.75;63.58
33795;BME280;51430;52.242;21.118;2022-10-16T13:40:24;100749.95;;;20.70;63.73
33795;BME280;51430;52.242;21.118;2022-10-16T13:44:01;100750.19;;;20.61;64.31
33795;BME280;51430;52.242;21.118;2022-10-16T13:47:42;100747.30;;;20.62;64.39
33795;BME280;51430;52.242;21.118;2022-10-16T13:51:18;100749.20;;;20.61;64.67
33795;BME280;51430;52.242;21.118;2022-10-16T13:54:55;100756.59;;;20.66;64.71
33795;BME280;51430;52.242;21.118;2022-10-16T13:58:38;100758.75;;;20.67;64.76
33795;BME280;51430;52.242;21.118;2022-10-16T14:02:37;100758.69;;;20.69;64.81
33795;BME280;51430;52.242;21.118;2022-10-16T14:05:55;100749.39;;;20.60;65.03
33795;BME280;51430;52.242;21.118;2022-10-16T14:09:33;100740.54;;;20.63;65.16
33795;BME280;51430;52.242;21.118;2022-10-16T14:13:18;100747.23;;;20.76;64.85
33795;BME280;51430;52.242;21.118;2022-10-16T14:16:56;100749.01;;;20.81;64.73
33795;BME280;51430;52.242;21.118;2022-10-16T14:20:34;100749.87;;;20.84;64.71
33795;BME280;51430;52.242;21.118;2022-10-16T14:24:12;100750.80;;;20.84;64.71
33795;BME280;51430;52.242;21.118;2022-10-16T14:32:04;100762.01;;;20.68;65.37
33795;BME280;51430;52.242;21.118;2022-10-16T14:35:40;100763.45;;;20.76;65.34
33795;BME280;51430;52.242;21.118;2022-10-16T14:39:21;100769.79;;;20.76;65.24
33795;BME280;51430;52.242;21.118;2022-10-16T14:43:00;100773.50;;;20.68;65.62
33795;BME280;51430;52.242;21.118;2022-10-16T14:46:38;100767.59;;;20.67;65.86
33795;BME280;51430;52.242;21.118;2022-10-16T14:50:16;100769.23;;;20.62;66.13
33795;BME280;51430;52.242;21.118;2022-10-16T14:53:54;100773.67;;;20.67;66.23
33795;BME280;51430;52.242;21.118;2022-10-16T14:57:37;100772.70;;;20.71;66.13
33795;BME280;51430;52.242;21.118;2022-10-16T15:01:15;100775.42;;;20.58;66.72
33795;BME280;51430;52.242;21.118;2022-10-16T15:04:52;100770.97;;;20.59;66.68
33795;BME280;51430;52.242;21.118;2022-10-16T15:08:30;100776.07;;;20.49;67.20
33795;BME280;51430;52.242;21.118;2022-10-16T15:12:07;100772.85;;;20.46;67.58
33795;BME280;51430;52.242;21.118;2022-10-16T15:15:46;100771.67;;;20.36;67.83
33795;BME280;51430;52.242;21.118;2022-10-16T15:19:26;100777.70;;;20.33;67.98
33795;BME280;51430;52.242;21.118;2022-10-16T15:23:12;100783.59;;;20.29;68.15
33795;BME280;51430;52.242;21.118;2022-10-16T15:26:49;100789.14;;;20.24;68.17
33795;BME280;51430;52.242;21.118;2022-10-16T15:30:27;100787.41;;;20.17;68.50
33795;BME280;51430;52.242;21.118;2022-10-16T15:34:04;100787.56;;;20.07;68.73
33795;BME280;51430;52.242;21.118;2022-10-16T15:37:42;100788.29;;;20.04;69.05
33795;BME280;51430;52.242;21.118;2022-10-16T15:41:21;100786.19;;;19.99;69.31
33795;BME280;51430;52.242;21.118;2022-10-16T15:44:59;100782.60;;;19.93;69.36
33795;BME280;51430;52.242;21.118;2022-10-16T15:48:37;100792.16;;;19.89;69.56
33795;BME280;51430;52.242;21.118;2022-10-16T15:52:14;100800.71;;;19.86;69.64
33795;BME280;51430;52.242;21.118;2022-10-16T15:55:53;100797.63;;;19.85;69.79
33795;BME280;51430;52.242;21.118;2022-10-16T15:59:29;100804.95;;;19.83;69.78
33795;BME280;51430;52.242;21.118;2022-10-16T16:03:08;100801.67;;;19.83;69.79
33795;BME280;51430;52.242;21.118;2022-10-16T16:06:46;100805.70;;;19.74;70.42
33795;BME280;51430;52.242;21.118;2022-10-16T16:10:23;100810.04;;;19.72;70.62
33795;BME280;51430;52.242;21.118;2022-10-16T16:14:00;100812.86;;;19.67;70.92
33795;BME280;51430;52.242;21.118;2022-10-16T16:17:38;100822.64;;;19.65;71.01
33795;BME280;51430;52.242;21.118;2022-10-16T16:21:16;100827.95;;;19.65;71.02
33795;BME280;51430;52.242;21.118;2022-10-16T16:24:54;100835.48;;;19.56;71.38
33795;BME280;51430;52.242;21.118;2022-10-16T16:28:31;100829.04;;;19.46;71.86
33795;BME280;51430;52.242;21.118;2022-10-16T16:32:10;100832.69;;;19.37;72.37
33795;BME280;51430;52.242;21.118;2022-10-16T16:35:46;100835.56;;;19.35;72.54
33795;BME280;51430;52.242;21.118;2022-10-16T16:39:24;100839.39;;;19.27;72.97
33795;BME280;51430;52.242;21.118;2022-10-16T16:43:02;100847.44;;;19.24;73.17
33795;BME280;51430;52.242;21.118;2022-10-16T16:46:40;100848.10;;;19.19;73.41
33795;BME280;51430;52.242;21.118;2022-10-16T16:50:19;100855.98;;;19.17;73.59
33795;BME280;51430;52.242;21.118;2022-10-16T16:53:56;100859.75;;;19.14;73.54
33795;BME280;51430;52.242;21.118;2022-10-16T16:57:34;100859.95;;;19.09;74.04
33795;BME280;51430;52.242;21.118;2022-10-16T17:01:12;100861.95;;;19.04;74.26
33795;BME280;51430;52.242;21.118;2022-10-16T17:04:56;100864.75;;;18.97;74.60
33795;BME280;51430;52.242;21.118;2022-10-16T17:08:38;100869.98;;;18.87;75.09
33795;BME280;51430;52.242;21.118;2022-10-16T17:12:14;100867.11;;;18.79;75.53
33795;BME280;51430;52.242;21.118;2022-10-16T17:15:53;100869.64;;;18.70;76.11
33795;BME280;51430;52.242;21.118;2022-10-16T17:19:30;100880.05;;;18.63;76.24
33795;BME280;51430;52.242;21.118;2022-10-16T17:23:08;100889.60;;;18.56;76.78
33795;BME280;51430;52.242;21.118;2022-10-16T17:26:45;100892.10;;;18.49;77.04
33795;BME280;51430;52.242;21.118;2022-10-16T17:30:25;100895.70;;;18.45;77.28
33795;BME280;51430;52.242;21.118;2022-10-16T17:34:04;100894.53;;;18.44;77.44
33795;BME280;51430;52.242;21.118;2022-10-16T17:37:40;100893.32;;;18.39;77.71
33795;BME280;51430;52.242;21.118;2022-10-16T17:41:21;100898.00;;;18.31;78.21
33795;BME280;51430;52.242;21.118;2022-10-16T17:44:58;100910.09;;;18.23;78.88
33795;BME280;51430;52.242;21.118;2022-10-16T17:48:39;100918.84;;;18.24;78.82
33795;BME280;51430;52.242;21.118;2022-10-16T17:52:15;100924.26;;;18.20;78.82
33795;BME280;51430;52.242;21.118;2022-10-16T17:55:54;100925.61;;;18.18;79.04
33795;BME280;51430;52.242;21.118;2022-10-16T17:59:40;100928.21;;;18.15;79.35
33795;BME280;51430;52.242;21.118;2022-10-16T18:03:16;100930.58;;;18.10;79.86
33795;BME280;51430;52.242;21.118;2022-10-16T18:06:54;100936.46;;;18.13;79.93
33795;BME280;51430;52.242;21.118;2022-10-16T18:10:45;100936.42;;;18.10;80.12
33795;BME280;51430;52.242;21.118;2022-10-16T18:14:27;100936.42;;;18.06;80.49
33795;BME280;51430;52.242;21.118;2022-10-16T18:18:05;100938.65;;;18.05;80.59
33795;BME280;51430;52.242;21.118;2022-10-16T18:21:44;100938.84;;;18.00;80.79
33795;BME280;51430;52.242;21.118;2022-10-16T18:25:20;100937.69;;;17.95;81.19
33795;BME280;51430;52.242;21.118;2022-10-16T18:28:58;100937.15;;;17.85;81.80
33795;BME280;51430;52.242;21.118;2022-10-16T18:32:36;100935.40;;;17.83;82.04
33795;BME280;51430;52.242;21.118;2022-10-16T18:36:15;100937.05;;;17.72;82.77
33795;BME280;51430;52.242;21.118;2022-10-16T18:39:52;100941.41;;;17.69;83.05
33795;BME280;51430;52.242;21.118;2022-10-16T18:43:32;100945.96;;;17.65;83.78
33795;BME280;51430;52.242;21.118;2022-10-16T18:47:10;100953.23;;;17.63;84.38
33795;BME280;51430;52.242;21.118;2022-10-16T18:50:47;100957.23;;;17.56;85.09
33795;BME280;51430;52.242;21.118;2022-10-16T18:54:25;100956.86;;;17.51;85.81
33795;BME280;51430;52.242;21.118;2022-10-16T18:58:02;100958.43;;;17.47;86.17
33795;BME280;51430;52.242;21.118;2022-10-16T19:01:39;100963.27;;;17.41;86.53
33795;BME280;51430;52.242;21.118;2022-10-16T19:05:18;100964.69;;;17.35;87.17
33795;BME280;51430;52.242;21.118;2022-10-16T19:08:56;100973.44;;;17.21;87.78
33795;BME280;51430;52.242;21.118;2022-10-16T19:12:53;100975.95;;;17.15;88.60
33795;BME280;51430;52.242;21.118;2022-10-16T19:16:50;100983.66;;;17.08;88.45
33795;BME280;51430;52.242;21.118;2022-10-16T19:20:47;100994.64;;;17.00;88.75
33795;BME280;51430;52.242;21.118;2022-10-16T19:24:45;100998.84;;;16.98;89.25
33795;BME280;51430;52.242;21.118;2022-10-16T19:28:28;100997.50;;;16.95;89.31
33795;BME280;51430;52.242;21.118;2022-10-16T19:32:06;101003.44;;;16.92;89.77
33795;BME280;51430;52.242;21.118;2022-10-16T19:36:12;101003.71;;;16.87;90.01
33795;BME280;51430;52.242;21.118;2022-10-16T19:40:09;101008.48;;;16.77;90.26
33795;BME280;51430;52.242;21.118;2022-10-16T19:44:13;101014.19;;;16.71;90.80
33795;BME280;51430;52.242;21.118;2022-10-16T19:48:14;101018.05;;;16.60;90.87
33795;BME280;51430;52.242;21.118;2022-10-16T19:52:10;101017.46;;;16.43;91.61
33795;BME280;51430;52.242;21.118;2022-10-16T19:56:18;101020.98;;;16.37;92.41
33795;BME280;51430;52.242;21.118;2022-10-16T19:59:57;101024.65;;;16.31;92.67
33795;BME280;51430;52.242;21.118;2022-10-16T20:03:36;101030.85;;;16.25;92.99
33795;BME280;51430;52.242;21.118;2022-10-16T20:07:17;101028.78;;;16.19;93.11
33795;BME280;51430;52.242;21.118;2022-10-16T20:10:57;101029.64;;;16.07;93.49
33795;BME280;51430;52.242;21.118;2022-10-16T20:14:50;101034.73;;;15.95;94.10
33795;BME280;51430;52.242;21.118;2022-10-16T20:18:28;101038.36;;;15.90;94.92
33795;BME280;51430;52.242;21.118;2022-10-16T20:22:06;101040.91;;;15.85;94.80
33795;BME280;51430;52.242;21.118;2022-10-16T20:25:46;101042.95;;;15.80;95.29
33795;BME280;51430;52.242;21.118;2022-10-16T20:29:44;101048.11;;;15.79;95.48
33795;BME280;51430;52.242;21.118;2022-10-16T20:33:41;101049.05;;;15.73;95.58